Flight Track Log - Related Links

Times and Time Zones

All times are in EDT time to prevent confusion due to time zone crossing. See the BJS262 flight status page for this flight to view local times or setup timezone preferences in your user account.

Time Position Orientation Groundspeed Altitude Reporting Facility
EDT Latitude Longitude Course Direction KTS MPH feet Rate Location/Type
Fri 04:15:43 PM 39.7500 -86.1667 72° East 270 311 6,200  Level Indianapolis TRACON
Fri 04:16:57 PM 39.6731 -86.1458 168° South 279 321 10,300 3,176 Climbing Indianapolis Center
Fri 04:17:59 PM 39.6000 -86.2097 214° Southwest 306 352 13,400 3,339 Climbing Indianapolis Center
Fri 04:19:01 PM 39.5014 -86.2969 214° Southwest 353 406 17,200 3,097 Climbing Indianapolis Center
Fri 04:20:03 PM 39.4147 -86.3733 214° Southwest 372 428 19,800 2,371 Climbing Indianapolis Center
Fri 04:21:05 PM 39.3256 -86.4539 215° Southwest 388 447 22,100 2,323 Climbing Indianapolis Center
Fri 04:22:07 PM 39.2286 -86.5372 214° Southwest 413 475 24,600 2,419 Climbing Indianapolis Center
Fri 04:23:09 PM 39.1314 -86.6225 214° Southwest 411 473 27,100 1,742 Climbing Indianapolis Center
Fri 04:24:11 PM 39.0344 -86.7181 217° Southwest 434 499 28,200 1,306 Climbing Indianapolis Center
Fri 04:25:13 PM 38.9303 -86.8194 217° Southwest 464 534 29,800 1,887 Climbing Indianapolis Center
Fri 04:26:15 PM 38.8061 -86.9369 216° Southwest 463 533 32,100 1,536 Climbing Indianapolis Center
Fri 04:27:18 PM 38.7000 -87.0378 217° Southwest 473 544 33,000 432 Climbing Indianapolis Center
Fri 04:28:20 PM 38.5967 -87.1353 216° Southwest 466 536 33,000  Level Indianapolis Center
Fri 04:29:22 PM 38.4947 -87.2322 217° Southwest 463 533 33,000  Level Indianapolis Center
Fri 04:30:24 PM 38.3931 -87.3300 217° Southwest 465 535 33,000 484 Level Indianapolis Center
Fri 04:31:26 PM 38.2594 -87.4278 210° Southwest 469 540 34,000 968 Climbing Indianapolis Center
Fri 04:32:28 PM 38.1381 -87.4906 202° Southwest 473 544 35,000 484 Climbing Indianapolis Center
Fri 04:33:30 PM 38.0169 -87.5569 203° Southwest 474 545 35,000 774 Level Indianapolis Center
Fri 04:34:32 PM 37.8972 -87.6222 203° Southwest 469 540 36,600 1,935 Climbing Indianapolis Center
Fri 04:35:34 PM 37.8000 -87.7181 218° Southwest 443 510 39,000 1,645 Climbing Indianapolis Center
Fri 04:36:36 PM 37.7008 -87.8308 222° Southwest 440 506 40,000 1,161 Climbing Indianapolis Center
Fri 04:37:38 PM 37.6067 -87.9392 222° Southwest 452 520 41,400 1,355 Climbing Indianapolis Center
Fri 04:38:40 PM 37.5156 -88.0442 222° Southwest 443 510 42,800 823 Climbing Indianapolis Center
Fri 04:39:42 PM 37.4267 -88.1464 222° Southwest 432 497 43,100 629 Climbing Indianapolis Center
Fri 04:40:25 PM 37.3575 -88.2331 225° Southwest 435 501 43,900 874 Climbing Memphis Center
Fri 04:41:25 PM 37.2717 -88.3292 222° Southwest 424 488 44,600 500 Climbing Memphis Center
Fri 04:42:25 PM 37.1875 -88.4225 221° Southwest 417 480 44,900 200 Climbing Memphis Center
Fri 04:43:25 PM 37.0994 -88.5128 219° Southwest 417 480 45,000 50 Climbing Memphis Center
Fri 04:44:25 PM 37.0111 -88.6033 219° Southwest 417 480 45,000  Level Memphis Center
Fri 04:45:25 PM 36.9206 -88.6936 219° Southwest 422 486 45,000  Level Memphis Center
Fri 04:46:25 PM 36.8281 -88.7836 218° Southwest 422 486 45,000  Level Memphis Center
Fri 04:47:25 PM 36.7356 -88.8761 219° Southwest 422 486 45,000  Level Memphis Center
Fri 04:48:25 PM 36.6447 -88.9656 218° Southwest 422 486 45,000  Level Memphis Center
Fri 04:49:25 PM 36.5539 -89.0525 218° Southwest 416 479 45,000  Level Memphis Center
Fri 04:50:25 PM 36.4592 -89.1442 218° Southwest 416 479 45,000 -450 Level Memphis Center
Fri 04:51:25 PM 36.3683 -89.2411 221° Southwest 431 496 44,100 -950 Descending Memphis Center
Fri 04:52:25 PM 36.2689 -89.3350 217° Southwest 445 512 43,100 -550 Descending Memphis Center
Fri 04:53:25 PM 36.1739 -89.4236 217° Southwest 469 540 43,000 -50 Descending Memphis Center
Fri 04:54:25 PM 36.0806 -89.5147 218° Southwest 455 524 43,000  Level Memphis Center
Fri 04:55:25 PM 35.9875 -89.6053 218° Southwest 447 514 43,000  Level Memphis Center
Fri 04:56:25 PM 35.8900 -89.7011 219° Southwest 441 507 43,000  Level Memphis Center
Fri 04:57:25 PM 35.7944 -89.7914 217° Southwest 441 507 43,000  Level Memphis Center
Fri 04:58:25 PM 35.6969 -89.8842 218° Southwest 441 507 43,000  Level Memphis Center
Fri 04:59:25 PM 35.6094 -89.9767 221° Southwest 434 499 43,000  Level Memphis Center
Fri 05:00:25 PM 35.5139 -90.0689 218° Southwest 434 499 43,000  Level Memphis Center
Fri 05:01:25 PM 35.4203 -90.1583 218° Southwest 434 499 43,000  Level Memphis Center
Fri 05:02:25 PM 35.3244 -90.2528 219° Southwest 445 512 43,000  Level Memphis Center
Fri 05:03:25 PM 35.2286 -90.3419 217° Southwest 440 506 43,000  Level Memphis Center
Fri 05:04:25 PM 35.1303 -90.4358 218° Southwest 446 513 43,000  Level Memphis Center
Fri 05:05:25 PM 35.0322 -90.5269 217° Southwest 446 513 43,000  Level Memphis Center
Fri 05:06:25 PM 34.9361 -90.6181 218° Southwest 446 513 43,000  Level Memphis Center
Fri 05:07:25 PM 34.8294 -90.7164 217° Southwest 441 507 43,000  Level Memphis Center
Fri 05:08:25 PM 34.7333 -90.8044 217° Southwest 441 507 43,000  Level Memphis Center
Fri 05:09:25 PM 34.6389 -90.8947 218° Southwest 441 507 43,000  Level Memphis Center
Fri 05:10:25 PM 34.5406 -90.9825 216° Southwest 441 507 43,000  Level Memphis Center
Fri 05:11:25 PM 34.4378 -91.0547 210° Southwest 436 502 43,000  Level Memphis Center
Fri 05:12:25 PM 34.3289 -91.1267 209° Southwest 436 502 43,000  Level Memphis Center
Fri 05:13:25 PM 34.2264 -91.1961 209° Southwest 436 502 43,000  Level Memphis Center
Fri 05:14:25 PM 34.1194 -91.2656 208° Southwest 433 498 43,000  Level Memphis Center
Fri 05:15:25 PM 34.0103 -91.3394 209° Southwest 438 504 43,000  Level Memphis Center
Fri 05:16:25 PM 33.9075 -91.4133 211° Southwest 438 504 43,000  Level Memphis Center
Fri 05:17:25 PM 33.8003 -91.4819 208° Southwest 438 504 43,000  Level Memphis Center
Fri 05:18:25 PM 33.6911 -91.5556 209° Southwest 438 504 43,000  Level Memphis Center
Fri 05:19:25 PM 33.5861 -91.6264 209° Southwest 438 504 43,000  Level Memphis Center
Fri 05:21:24 PM 33.3886 -91.7564 209° Southwest 426 490 43,000  Level Fort Worth Center
Fri 05:22:25 PM 33.2750 -91.8308 209° Southwest 439 505 43,000  Level Fort Worth Center
Fri 05:23:24 PM 33.1717 -91.8994 209° Southwest 439 505 43,000  Level Fort Worth Center
Fri 05:24:24 PM 33.0558 -91.9733 208° Southwest 444 511 43,000  Level Fort Worth Center
Fri 05:25:24 PM 32.9664 -92.0731 223° Southwest 439 505 43,000  Level Fort Worth Center
Fri 05:26:24 PM 32.9067 -92.1953 240° Southwest 425 489 43,000  Level Fort Worth Center
Fri 05:27:24 PM 32.8453 -92.3225 240° Southwest 436 502 43,000  Level Fort Worth Center
Fri 05:28:25 PM 32.7875 -92.4444 241° Southwest 436 502 43,000  Level Fort Worth Center
Fri 05:29:24 PM 32.7275 -92.5661 240° Southwest 436 502 43,000  Level Fort Worth Center
Fri 05:30:24 PM 32.6675 -92.6878 240° Southwest 436 502 43,000  Level Fort Worth Center
Fri 05:31:25 PM 32.6050 -92.8094 239° Southwest 436 502 43,000  Level Fort Worth Center
Fri 05:32:24 PM 32.5469 -92.9306 240° Southwest 436 502 43,000  Level Fort Worth Center
Fri 05:33:24 PM 32.4781 -93.0497 236° Southwest 436 502 43,000  Level Fort Worth Center
Fri 05:34:25 PM 32.3786 -93.1358 216° Southwest 435 501 43,000  Level Fort Worth Center
Fri 05:35:24 PM 32.2747 -93.2094 211° Southwest 435 501 43,000  Level Fort Worth Center
Fri 05:36:24 PM 32.1708 -93.2878 213° Southwest 440 506 43,000  Level Fort Worth Center
Fri 05:37:15 PM 32.0839 -93.3597 215° Southwest 439 505 43,000  Level Houston Center
Fri 05:38:17 PM 31.9814 -93.4342 212° Southwest 435 501 43,000  Level Houston Center
Fri 05:39:20 PM 31.8803 -93.5092 212° Southwest 435 501 43,000  Level Houston Center
Fri 05:40:22 PM 31.7772 -93.5850 212° Southwest 439 505 43,000  Level Houston Center
Fri 05:41:24 PM 31.6739 -93.6614 212° Southwest 431 496 43,000  Level Houston Center
Fri 05:42:26 PM 31.5731 -93.7333 211° Southwest 424 488 43,000 -484 Level Houston Center
Fri 05:43:28 PM 31.4531 -93.8222 212° Southwest 425 489 42,000 -1,500 Descending Houston Center
Fri 05:44:30 PM 31.3456 -93.8772 204° Southwest 434 499 39,900 -2,000 Descending Houston Center
Fri 05:45:34 PM 31.2408 -93.8847 184° South 442 509 37,800 -1,645 Descending Houston Center
Fri 05:46:34 PM 31.0964 -93.8978 184° South 450 518 36,500 -1,623 Descending Houston Center
Fri 05:47:36 PM 30.9636 -93.9100 185° South 459 528 34,500 -1,632 Descending Houston Center
Fri 05:48:39 PM 30.8492 -93.9575 200° South 455 524 33,100 -1,776 Descending Houston Center
Fri 05:49:41 PM 30.7703 -94.0750 232° Southwest 464 534 30,800 -1,984 Descending Houston Center
Fri 05:50:43 PM 30.7169 -94.2006 244° Southwest 456 525 29,000 -2,081 Descending Houston Center
Fri 05:51:45 PM 30.6742 -94.3569 252° West 427 491 26,500 -2,177 Descending Houston Center
Fri 05:52:47 PM 30.6389 -94.4825 252° West 414 476 24,500 -1,935 Descending Houston Center
Fri 05:53:49 PM 30.6003 -94.6103 251° West 410 472 22,500 -2,226 Descending Houston Center
Fri 05:54:51 PM 30.5192 -94.6919 221° Southwest 384 442 19,900 -2,952 Descending Houston Center
Fri 05:55:53 PM 30.4114 -94.7517 206° Southwest 383 441 16,400 -2,746 Descending Houston Center
Fri 05:56:49 PM 30.3267 -94.7981 205° Southwest 365 420 14,500 -1,171 Descending Houston Center
Fri 05:57:56 PM 30.2556 -94.8894 228° Southwest 319 367 14,000 -233 Descending Houston Center
Fri 05:58:58 PM 30.2022 -94.9711 233° Southwest 322 371 14,000 -49 Level Houston Center
Fri 05:59:59 PM 30.1453 -95.0581 233° Southwest 324 373 13,900 -769 Descending Houston Center
Fri 06:00:55 PM 30.0714 -95.0986 205° Southwest 311 358 12,500 -1,590 Descending Houston Center
Fri 06:01:56 PM 29.9906 -95.1325 200° South 304 350 10,800 -1,624 Descending Houston Center
Fri 06:03:08 PM 29.9042 -95.1711 201° Southwest 300 345 8,900 -1,349 Descending Houston Center
Fri 06:04:05 PM 29.8250 -95.2036 200° South 293 337 7,900 -1,113 Descending Houston Center
Fri 06:05:12 PM 29.7528 -95.2353 201° Southwest 292 336 6,600 -983 Descending Houston Center
Fri 06:06:01 PM 29.6794 -95.2428 185° South 275 316 6,000 -595 Descending Houston Center
Fri 06:07:03 PM 29.6292 -95.3139 231° Southwest 282 325 5,500 -823 Descending Houston Center
Fri 06:08:05 PM 29.6142 -95.4022 259° West 258 297 4,300 -1,131 Descending Houston Center
Fri 06:09:05 PM 29.6333 -95.4719 288° West 216 249 3,200 -803 Descending Houston Center
Fri 06:10:12 PM 29.6669 -95.5425 299° West 217 250 2,600 -634 Descending Houston Center
Fri 06:11:08 PM 29.6844 -95.5958 291° West 206 237 1,900 -769 Descending Houston Center
Fri 06:12:09 PM 29.6747 -95.6522 259° West 151 174 1,100 -698 Descending Houston Center
Fri 06:13:17 PM 29.6331 -95.6572 186° South 140 161 400 -618 Descending Houston Center
Fri 06:15:00 PM 29.6167 -95.6500 180° South  Level FlightAware Approximate
Fri 06:22:00 PM 29.6222 -95.6565 180° South  Level Estimated

Login

Don't have an account? Register now (free) for customized features, flight alerts, and more!